MAS1001 WMKK-WMSA
Flight info
| Callsign | MAS1001 |
|---|---|
| Flight time | N/A |
| Altitude | 4000 |
| Route | WMKK 570 VKL SA614 SA615 RW33 WMSA |
| Aircraft | B738/M-VGDW/C |
Departure
| Time | 2026-05-07 11:57 |
|---|---|
| Airport | Kuala Lumpur International Airport (WMKK) |
Arrival
| Time | N/A |
|---|---|
| Airport | Sultan Abdul Aziz Shah International Airport (WMSA) |
| Time | Latitude | Longitude | Altitude | Speed | Heading |
|---|---|---|---|---|---|
| 2026-05-07 11:30 | 2.72532 | 101.71581 | 75 ft | 0 kts | 83° |
| 2026-05-07 11:32 | 2.72532 | 101.71583 | 75 ft | 3 kts | 84° |
| 2026-05-07 11:32 | 2.72512 | 101.71626 | 73 ft | 12 kts | 135° |
| 2026-05-07 11:32 | 2.72436 | 101.71664 | 75 ft | 15 kts | 169° |
| 2026-05-07 11:33 | 2.72349 | 101.71687 | 67 ft | 11 kts | 145° |
| 2026-05-07 11:33 | 2.72522 | 101.71480 | 75 ft | 0 kts | 236° |
| 2026-05-07 11:39 | 2.72522 | 101.71479 | 75 ft | 0 kts | 236° |
| 2026-05-07 11:39 | 2.72519 | 101.71475 | 65 ft | 2 kts | 236° |
| 2026-05-07 11:39 | 2.72509 | 101.71461 | 73 ft | 3 kts | 236° |
| 2026-05-07 11:40 | 2.72503 | 101.71452 | 69 ft | 0 kts | 237° |
| 2026-05-07 11:40 | 2.72504 | 101.71452 | 69 ft | 0 kts | 238° |
| 2026-05-07 11:41 | 2.72527 | 101.71490 | 66 ft | 0 kts | 238° |
| 2026-05-07 11:42 | 2.72527 | 101.71489 | 65 ft | 0 kts | 238° |
| 2026-05-07 11:47 | 2.72526 | 101.71489 | 65 ft | 1 kts | 238° |
| 2026-05-07 11:49 | 2.72532 | 101.71498 | 64 ft | 2 kts | 236° |
| 2026-05-07 11:49 | 2.72541 | 101.71511 | 69 ft | 2 kts | 234° |
| 2026-05-07 11:49 | 2.72550 | 101.71525 | 65 ft | 2 kts | 236° |
| 2026-05-07 11:49 | 2.72563 | 101.71535 | 66 ft | 2 kts | 195° |
| 2026-05-07 11:50 | 2.72579 | 101.71537 | 66 ft | 2 kts | 178° |
| 2026-05-07 11:50 | 2.72595 | 101.71535 | 70 ft | 2 kts | 164° |
| 2026-05-07 11:50 | 2.72603 | 101.71533 | 75 ft | 0 kts | 150° |
| 2026-05-07 11:52 | 2.72590 | 101.71540 | 71 ft | 10 kts | 150° |
| 2026-05-07 11:52 | 2.72551 | 101.71569 | 67 ft | 11 kts | 145° |
| 2026-05-07 11:52 | 2.72490 | 101.71612 | 71 ft | 11 kts | 148° |
| 2026-05-07 11:52 | 2.72409 | 101.71610 | 69 ft | 9 kts | 203° |
| 2026-05-07 11:53 | 2.72391 | 101.71596 | 70 ft | 1 kts | 233° |
| 2026-05-07 11:53 | 2.72388 | 101.71592 | 67 ft | 2 kts | 233° |
| 2026-05-07 11:53 | 2.72363 | 101.71543 | 68 ft | 10 kts | 251° |
| 2026-05-07 11:53 | 2.72338 | 101.71476 | 73 ft | 10 kts | 246° |
| 2026-05-07 11:54 | 2.72295 | 101.71420 | 73 ft | 8 kts | 210° |
| 2026-05-07 11:54 | 2.72252 | 101.71421 | 71 ft | 7 kts | 160° |
| 2026-05-07 11:54 | 2.72200 | 101.71453 | 72 ft | 11 kts | 146° |
| 2026-05-07 11:54 | 2.72129 | 101.71502 | 71 ft | 14 kts | 144° |
| 2026-05-07 11:55 | 2.72038 | 101.71562 | 69 ft | 18 kts | 146° |
| 2026-05-07 11:55 | 2.71926 | 101.71640 | 60 ft | 21 kts | 145° |
| 2026-05-07 11:55 | 2.71794 | 101.71726 | 64 ft | 24 kts | 145° |
| 2026-05-07 11:55 | 2.71708 | 101.71764 | 57 ft | 9 kts | 192° |
| 2026-05-07 11:56 | 2.71662 | 101.71721 | 57 ft | 12 kts | 236° |
| 2026-05-07 11:56 | 2.71621 | 101.71634 | 56 ft | 14 kts | 270° |
| 2026-05-07 11:56 | 2.71661 | 101.71582 | 54 ft | 9 kts | 324° |
| 2026-05-07 11:56 | 2.71745 | 101.71524 | 52 ft | 43 kts | 326° |
| 2026-05-07 11:57 | 2.72374 | 101.71102 | 68 ft | 168 kts | 328° |
| 2026-05-07 11:57 | 2.73524 | 101.70306 | 722 ft | 227 kts | 328° |
| 2026-05-07 11:57 | 2.74963 | 101.69549 | 1875 ft | 245 kts | 342° |
| 2026-05-07 11:57 | 2.76700 | 101.68993 | 2528 ft | 266 kts | 347° |
| 2026-05-07 11:58 | 2.78421 | 101.68614 | 3853 ft | 249 kts | 351° |
| 2026-05-07 11:58 | 2.80149 | 101.68344 | 3998 ft | 250 kts | 354° |
| 2026-05-07 11:58 | 2.81791 | 101.68109 | 4934 ft | 224 kts | 352° |
| 2026-05-07 11:58 | 2.83362 | 101.67873 | 5434 ft | 248 kts | 353° |
| 2026-05-07 11:59 | 2.85144 | 101.67663 | 5200 ft | 252 kts | 354° |
| 2026-05-07 11:59 | 2.86711 | 101.67477 | 5743 ft | 202 kts | 354° |
| 2026-05-07 11:59 | 2.88047 | 101.67314 | 5578 ft | 193 kts | 354° |
| 2026-05-07 11:59 | 2.89478 | 101.67129 | 4655 ft | 222 kts | 353° |
| 2026-05-07 12:00 | 2.90964 | 101.66900 | 4292 ft | 212 kts | 352° |
| 2026-05-07 12:00 | 2.92494 | 101.66606 | 3586 ft | 224 kts | 350° |
| 2026-05-07 12:00 | 2.93975 | 101.66256 | 3313 ft | 213 kts | 348° |
| 2026-05-07 12:00 | 2.95349 | 101.65734 | 3250 ft | 216 kts | 328° |
| 2026-05-07 12:01 | 2.96607 | 101.64846 | 3249 ft | 223 kts | 327° |
| 2026-05-07 12:01 | 2.97865 | 101.63949 | 3043 ft | 222 kts | 326° |
| 2026-05-07 12:01 | 2.99032 | 101.63089 | 3356 ft | 198 kts | 326° |
| 2026-05-07 12:01 | 3.00137 | 101.62285 | 2884 ft | 195 kts | 329° |
| 2026-05-07 12:02 | 3.01306 | 101.61660 | 2618 ft | 183 kts | 338° |
| 2026-05-07 12:02 | 3.02488 | 101.61119 | 2895 ft | 191 kts | 341° |
| 2026-05-07 12:02 | 3.03695 | 101.60531 | 3242 ft | 199 kts | 333° |
| 2026-05-07 12:02 | 3.04913 | 101.59868 | 3165 ft | 201 kts | 335° |
| 2026-05-07 12:03 | 3.06132 | 101.59232 | 2925 ft | 194 kts | 336° |
| 2026-05-07 12:03 | 3.07271 | 101.58623 | 2519 ft | 178 kts | 330° |
| 2026-05-07 12:03 | 3.08298 | 101.57967 | 2039 ft | 169 kts | 331° |
| 2026-05-07 12:03 | 3.09172 | 101.57270 | 1652 ft | 158 kts | 321° |